Thunder radar more information blitzortung!


Radar de pluja more information rain snow radar


Visita la nostra xarxa de llocs de meteo:

Template documentation
and downloads

And another site



No particular awareness of the weather is required.    There are no Weather-warnings

Pagina Historial Weather Underground text

Diari Resum Juliol 16, 2017 Unitats:  Imperial    Mètric   Tant
« Previous Dia
SegĂźent Dia »
Diari Setmana Mensual Anual Personalitzada
  Maxima: Minima: Media:
Temperatura: 91 °F 71.4 °F 78.4 °F
Punt de rosada: 70.3 °F 59.9 °F 62.2 °F
Humitat: 72 % 46 % 59 %
Wind Speed: 7 mph 0 mph 2.7 mph
RĂ fegues de vent: 11 mph - -
Vent:- - SSW
Pression baro: 30.1 in 30 in -
Precipitacions: 0 in    
Historical Graphs
 
 
Dades de taula per Juliol 16, 2017
Temps Temperatura Punt de rosada Pression baro Vent Wind Speed RĂ fegues de vent Humitat Rainfall Rate (Hourly)
00:00 75.6 °F 65.1 °F 30 in SW 2.9 mph 2.9 mph 70 % 0 in
00:05 75.4 °F 64.9 °F 30 in SW 3.5 mph 3.5 mph 70 % 0 in
11:00 91 °F 70.3 °F 30.1 in South 6 mph 11 mph 51 % 0 in
11:10 90.5 °F 69.3 °F 30.1 in SSW 2 mph 4 mph 50 % 0 in
11:20 91 °F 69.3 °F 30.1 in SSW 3 mph 6 mph 49 % 0 in
11:30 90.1 °F 67.8 °F 30 in SW 3 mph 4 mph 48 % 0 in
11:40 90.3 °F 68 °F 30.1 in SW 3 mph 8 mph 48 % 0 in
11:50 91 °F 68.5 °F 30.1 in SW 3 mph 6 mph 48 % 0 in
12:00 91 °F 68.5 °F 30.1 in SW 3 mph 6 mph 48 % 0 in
12:10 90.5 °F 67.5 °F 30 in SW 6 mph 8 mph 47 % 0 in
12:20 89.8 °F 66.9 °F 30 in SW 3 mph 10 mph 47 % 0 in
12:30 90.5 °F 67.5 °F 30 in SW 2 mph 6 mph 47 % 0 in
12:40 89.8 °F 66.2 °F 30 in WSW 3 mph 3 mph 46 % 0 in
12:50 88.7 °F 65.8 °F 30 in SW 5 mph 8 mph 47 % 0 in
13:00 88.2 °F 65.5 °F 30 in SSW 2 mph 8 mph 47 % 0 in
13:10 87.8 °F 64.4 °F 30 in SW 3 mph 7 mph 46 % 0 in
13:20 87.4 °F 64.8 °F 30 in SW 3 mph 5 mph 47 % 0 in
13:30 86.5 °F 63.9 °F 30 in SW 5 mph 8 mph 47 % 0 in
13:40 86.9 °F 64.2 °F 30 in WSW 3 mph 4 mph 47 % 0 in
13:50 86.4 °F 63.1 °F 30 in SW 2 mph 4 mph 46 % 0 in
14:00 86 °F 63.3 °F 30 in SSW 2 mph 3 mph 47 % 0 in
14:10 85.5 °F 63 °F 30 in SE 2 mph 3 mph 47 % 0 in
14:20 83.8 °F 62.6 °F 30 in SE 3 mph 4 mph 49 % 0 in
14:30 83.1 °F 62.1 °F 30 in SSE 2 mph 4 mph 49 % 0 in
14:40 81.9 °F 60.8 °F 30 in East 7 mph 8 mph 49 % 0 in
14:50 81 °F 60.6 °F 30 in East 5 mph 7 mph 50 % 0 in
15:00 80.8 °F 60.4 °F 30 in ESE 5 mph 8 mph 50 % 0 in
15:10 80.4 °F 60.6 °F 30 in ESE 6 mph 6 mph 51 % 0 in
15:20 80.4 °F 61.2 °F 30 in ESE 3 mph 6 mph 52 % 0 in
15:30 79.9 °F 60.6 °F 30 in ESE 6 mph 8 mph 52 % 0 in
15:40 79.3 °F 60.6 °F 30 in ESE 5 mph 5 mph 53 % 0 in
15:45 79 °F 60.4 °F 30 in ESE 3 mph 4 mph 53 % 0 in
19:20 73.4 °F 61.3 °F 30 in WSW 1 mph 3 mph 66 % 0 in
19:30 73.4 °F 61.3 °F 30.1 in SW 2 mph 3 mph 66 % 0 in
19:40 73.2 °F 61.2 °F 30.1 in WSW 1 mph 2 mph 66 % 0 in
19:50 73 °F 61.3 °F 30.1 in WSW 2 mph 2 mph 67 % 0 in
20:00 72.9 °F 61.3 °F 30.1 in SW 2 mph 3 mph 67 % 0 in
20:10 72.7 °F 61.5 °F 30.1 in Calm   2 mph 68 % 0 in
20:20 72.7 °F 61.5 °F 30.1 in Calm   1 mph 68 % 0 in
20:30 72.7 °F 61.9 °F 30.1 in Calm   1 mph 69 % 0 in
20:40 72.7 °F 61.9 °F 30.1 in WNW 1 mph 2 mph 69 % 0 in
20:49 79 °F 60.4 °F 30 in East 4.6 mph 4.6 mph 53 % 0 in
20:50 72.1 °F 61.3 °F 30.1 in Calm   1 mph 69 % 0 in
20:54 79 °F 60.4 °F 30 in SE 5.6 mph 5.6 mph 53 % 0 in
20:59 78.8 °F 60.3 °F 30 in ESE 6.4 mph 6.4 mph 53 % 0 in
21:00 72.1 °F 61.9 °F 30.1 in Calm   2 mph 70 % 0 in
21:04 78.4 °F 59.9 °F 30 in ESE 5.8 mph 5.8 mph 53 % 0 in
21:09 78.3 °F 60.3 °F 30.1 in SE 4.6 mph 4.7 mph 54 % 0 in
21:10 72.3 °F 61.5 °F 30.1 in WSW 1 mph 2 mph 69 % 0 in
21:14 78.1 °F 60.1 °F 30.1 in ESE 4.6 mph 4.6 mph 54 % 0 in
21:20 78.1 °F 60.1 °F 30.1 in East 3 mph 6 mph 54 % 0 in
21:25 77.9 °F 59.9 °F 30.1 in East 4.6 mph 4.6 mph 54 % 0 in
21:30 77.9 °F 59.9 °F 30.1 in East 4.6 mph 4.6 mph 54 % 0 in
21:36 77.7 °F 60.3 °F 30.1 in ENE 3.5 mph 3.5 mph 55 % 0 in
21:40 72.3 °F 62.1 °F 30.1 in SW 1 mph 1 mph 70 % 0 in
21:41 77.5 °F 60.1 °F 30.1 in SSE 2.3 mph 2.3 mph 55 % 0 in
21:46 77.5 °F 60.1 °F 30.1 in West 1.4 mph   55 % 0 in
21:50 72.3 °F 62.1 °F 30.1 in SW 2 mph 2 mph 70 % 0 in
21:51 77.4 °F 59.9 °F 30.1 in Calm   0.9 mph 55 % 0 in
21:56 77.4 °F 59.9 °F 30.1 in SW 1.4 mph 1.6 mph 55 % 0 in
22:00 72.3 °F 62.1 °F 30.1 in SW 2 mph 3 mph 70 % 0 in
22:01 77.4 °F 59.9 °F 30.1 in WSW 2.4 mph 2.4 mph 55 % 0 in
22:06 77.2 °F 60.3 °F 30.1 in WSW 2.3 mph 2.3 mph 56 % 0 in
22:10 72.5 °F 62.2 °F 30 in SW 1 mph 3 mph 70 % 0 in
22:11 77 °F 60.6 °F 30.1 in SW 2.3 mph 2.4 mph 57 % 0 in
22:16 76.8 °F 61 °F 30.1 in WSW 3.8 mph 3.8 mph 58 % 0 in
22:20 72.7 °F 62.2 °F 30 in SW 1 mph 2 mph 70 % 0 in
22:21 76.6 °F 61.2 °F 30.1 in West 4.6 mph 4.6 mph 59 % 0 in
22:26 76.5 °F 61.2 °F 30.1 in West 3.5 mph 3.5 mph 59 % 0 in
22:30 72.7 °F 62.2 °F 30 in SW 1 mph 2 mph 70 % 0 in
22:31 76.3 °F 61 °F 30.1 in SW 3.5 mph 3.5 mph 59 % 0 in
22:36 76.1 °F 61.2 °F 30.1 in WSW 3.5 mph 3.5 mph 60 % 0 in
22:40 72.7 °F 62.2 °F 30 in SW 2 mph 2 mph 70 % 0 in
22:41 75.9 °F 61 °F 30.1 in SSE 3.5 mph 3.5 mph 60 % 0 in
22:47 75.7 °F 61 °F 30.1 in SW 3.5 mph 3.5 mph 60 % 0 in
22:50 72.7 °F 62.2 °F 30 in WSW 1 mph 2 mph 70 % 0 in
22:52 75.6 °F 61.2 °F 30.1 in SSW 3.1 mph 3.1 mph 61 % 0 in
22:57 75.6 °F 61.2 °F 30.1 in SW 4.6 mph 4.6 mph 61 % 0 in
23:00 72.1 °F 61.9 °F 30 in WSW 1 mph 2 mph 70 % 0 in
23:02 75.4 °F 61 °F 30.1 in WSW 2.6 mph 2.6 mph 61 % 0 in
23:07 75.2 °F 60.8 °F 30.1 in SW 2.9 mph 2.9 mph 61 % 0 in
23:10 72 °F 61.5 °F 30 in SW 2 mph 2 mph 70 % 0 in
23:12 75 °F 61.2 °F 30.1 in SW 3.5 mph 3.5 mph 62 % 0 in
23:17 75 °F 61.5 °F 30.1 in SW 3.5 mph 3.5 mph 63 % 0 in
23:20 71.8 °F 61.9 °F 30 in Calm   2 mph 71 % 0 in
23:22 74.8 °F 61.3 °F 30 in WSW 2.3 mph 2.3 mph 63 % 0 in
23:27 74.7 °F 61.2 °F 30 in SW 2.6 mph 2.6 mph 63 % 0 in
23:30 71.6 °F 61.7 °F 30 in Calm   1 mph 71 % 0 in
23:32 74.5 °F 61.2 °F 30 in SW 2.3 mph 2.4 mph 63 % 0 in
23:37 74.5 °F 61.2 °F 30 in SW 2.3 mph 2.3 mph 63 % 0 in
23:40 71.6 °F 61.7 °F 30 in Calm   2 mph 71 % 0 in
23:42 74.3 °F 61.3 °F 30 in WSW 2.3 mph 2.3 mph 64 % 0 in
23:47 74.1 °F 61.2 °F 30 in SW 3.5 mph 3.5 mph 64 % 0 in
23:50 71.4 °F 61.9 °F 30 in Calm   1 mph 72 % 0 in
23:52 74.1 °F 61.2 °F 30.1 in SW 2.3 mph 2.3 mph 64 % 0 in
23:57 73.9 °F 61 °F 30.1 in SW 3.3 mph 3.3 mph 64 % 0 in
Meteo Sesrovires
Elogis d' Weather Underground - 3 mb

Guio original per  Jim McMurry - jmcmurry@mwt.net Adaptat per a la plantilla per  Wim van der Kuil - Leuven-Template.eu

Trobareu la nostra informacio del temps tambe a:

Weather Underground

AWEKAS